Flight Track Log - Related Links

Times and Time Zones

All times are in EST time to prevent confusion due to time zone crossing. See the ASA137 flight status page for this flight to view local times or setup timezone preferences in your user account.

Time Position Orientation Groundspeed Altitude Reporting Facility
EST Latitude Longitude Course Direction KTS MPH feet Rate Location/Type
Thu 11:06:59 PM 45.5942 -122.6194 302° West 167 192 600  Level Seattle Center
Thu 11:07:17 PM 45.6022 -122.6378 302° West 167 192 1,300 2,051 Climbing Seattle Center
Thu 11:08:18 PM 45.6336 -122.7083 302° West 212 244 3,300 2,125 Climbing Seattle Center
Thu 11:08:53 PM 45.6492 -122.7481 299° West 219 252 4,700 2,400 Climbing Seattle Center
Thu 11:09:18 PM 45.6744 -122.7719 327° Northwest 250 288 5,700 2,500 Climbing Seattle Center
Thu 11:09:53 PM 45.7117 -122.7822 349° North 254 292 7,200 2,688 Climbing Seattle Center
Thu 11:10:54 PM 45.7908 -122.7983 352° North 266 306 10,000 2,311 Climbing Seattle Center
Thu 11:11:55 PM 45.8689 -122.8167 351° North 284 327 11,900 1,918 Climbing Seattle Center
Thu 11:12:56 PM 45.9572 -122.8494 346° North 327 376 13,900 2,132 Climbing Seattle Center
Thu 11:13:56 PM 46.0428 -122.9131 333° Northwest 348 400 16,200 2,430 Climbing Seattle Center
Thu 11:14:57 PM 46.1294 -122.9739 334° Northwest 357 411 18,800 2,311 Climbing Seattle Center
Thu 11:15:58 PM 46.2217 -123.0425 333° Northwest 356 410 20,900 1,934 Climbing Seattle Center
Thu 11:16:58 PM 46.3175 -123.1103 334° Northwest 373 429 22,700 1,835 Climbing Seattle Center
Thu 11:17:59 PM 46.4111 -123.1806 333° Northwest 393 452 24,600 1,770 Climbing Seattle Center
Thu 11:19:00 PM 46.5189 -123.2608 333° Northwest 407 468 26,300 1,587 Climbing Seattle Center
Thu 11:20:00 PM 46.6225 -123.3386 333° Northwest 418 481 27,800 1,537 Climbing Seattle Center
Thu 11:21:01 PM 46.7289 -123.4175 333° Northwest 426 490 29,400 1,426 Climbing Seattle Center
Thu 11:22:02 PM 46.8367 -123.4964 333° Northwest 431 496 30,700 1,488 Climbing Seattle Center
Thu 11:23:02 PM 46.9453 -123.5786 333° Northwest 436 502 32,400 1,587 Climbing Seattle Center
Thu 11:24:03 PM 47.0458 -123.6706 328° Northwest 427 491 33,900 1,180 Climbing Seattle Center
Thu 11:25:04 PM 47.1400 -123.7744 323° Northwest 423 487 34,800 843 Climbing Seattle Center
Thu 11:26:04 PM 47.2369 -123.8786 324° Northwest 429 494 35,600 595 Climbing Seattle Center
Thu 11:27:05 PM 47.3317 -123.9811 324° Northwest 434 499 36,000 197 Climbing Seattle Center
Thu 11:28:06 PM 47.4275 -124.0875 323° Northwest 433 498 36,000  Level Seattle Center
Thu 11:29:06 PM 47.5225 -124.1925 323° Northwest 429 494 36,000  Level Seattle Center
Thu 11:30:07 PM 47.6175 -124.2975 323° Northwest 426 490 36,000  Level Seattle Center
Thu 11:31:08 PM 47.7122 -124.4028 323° Northwest 426 490 36,000  Level Seattle Center
Thu 11:32:08 PM 47.8075 -124.5078 324° Northwest 427 491 36,000  Level Seattle Center
Thu 11:33:09 PM 47.9019 -124.6139 323° Northwest 424 488 36,000  Level Seattle Center
Thu 11:34:10 PM 47.9972 -124.7222 323° Northwest 428 493 36,000  Level Seattle Center
Thu 11:35:10 PM 48.0928 -124.8306 323° Northwest 429 494 36,000  Level Seattle Center
Thu 11:35:53 PM 48.1667 -124.9333 317° Northwest 430 495 36,000  Level Vancouver Center
Thu 11:36:53 PM 48.2667 -125.0333 326° Northwest 440 506 36,000  Level Vancouver Center
Thu 11:37:53 PM 48.3500 -125.1500 317° Northwest 430 495 36,000  Level Vancouver Center
Thu 11:38:53 PM 48.4500 -125.2667 322° Northwest 440 506 36,000  Level Vancouver Center
Thu 11:39:53 PM 48.5500 -125.3667 327° Northwest 440 506 36,000  Level Vancouver Center
Thu 11:40:53 PM 48.6500 -125.5000 319° Northwest 440 506 36,000  Level Vancouver Center
Thu 11:41:53 PM 48.7333 -125.6000 322° Northwest 440 506 36,000  Level Vancouver Center
Thu 11:42:53 PM 48.8333 -125.7333 319° Northwest 430 495 36,000  Level Vancouver Center
Thu 11:43:53 PM 48.9333 -125.8333 327° Northwest 430 495 36,000  Level Vancouver Center
Thu 11:44:53 PM 49.0167 -125.9333 322° Northwest 440 506 36,000  Level Vancouver Center
Thu 11:45:53 PM 49.1167 -126.0667 319° Northwest 440 506 36,000  Level Vancouver Center
Thu 11:46:53 PM 49.2167 -126.1833 323° Northwest 440 506 36,000  Level Vancouver Center
Thu 11:47:53 PM 49.3167 -126.2833 327° Northwest 440 506 36,000  Level Vancouver Center
Thu 11:48:53 PM 49.4167 -126.4167 319° Northwest 440 506 36,000  Level Vancouver Center
Thu 11:49:53 PM 49.5000 -126.5167 322° Northwest 430 495 36,000  Level Vancouver Center
Thu 11:50:53 PM 49.6000 -126.6333 323° Northwest 430 495 36,000  Level Vancouver Center
Thu 11:51:53 PM 49.6833 -126.7667 314° West 440 506 36,000  Level Vancouver Center
Thu 11:52:53 PM 49.8000 -126.8833 327° Northwest 440 506 36,000  Level Vancouver Center
Thu 11:53:53 PM 49.8833 -126.9833 322° Northwest 440 506 36,000  Level Vancouver Center
Thu 11:54:53 PM 49.9833 -127.1167 319° Northwest 440 506 36,000  Level Vancouver Center
Thu 11:55:53 PM 50.0667 -127.2333 318° Northwest 440 506 36,000 250 Level Vancouver Center
Thu 11:56:53 PM 50.1667 -127.3500 323° Northwest 450 518 36,500 1,000 Climbing Vancouver Center
Thu 11:57:53 PM 50.2667 -127.4833 320° Northwest 440 506 38,000 750 Climbing Vancouver Center
Thu 11:58:53 PM 50.3667 -127.6000 323° Northwest 430 495 38,000  Level Vancouver Center
Thu 11:59:53 PM 50.4500 -127.7000 323° Northwest 420 483 38,000  Level Vancouver Center
Fri 12:00:53 AM 50.5333 -127.8167 318° Northwest 420 483 38,000  Level Vancouver Center
Fri 12:01:53 AM 50.6333 -127.9333 324° Northwest 420 483 38,000  Level Vancouver Center
Fri 12:02:53 AM 50.7167 -128.0667 315° West 410 472 38,000  Level Vancouver Center
Fri 12:03:53 AM 50.8167 -128.1833 324° Northwest 420 483 38,000  Level Vancouver Center
Fri 12:04:53 AM 50.8833 -128.3000 312° West 420 483 38,000  Level Vancouver Center
Fri 12:05:53 AM 50.9833 -128.4167 324° Northwest 420 483 38,000  Level Vancouver Center
Fri 12:06:53 AM 51.0833 -128.5333 324° Northwest 430 495 38,000  Level Vancouver Center
Fri 12:07:53 AM 51.1667 -128.6667 315° West 430 495 38,000  Level Vancouver Center
Fri 12:08:53 AM 51.2500 -128.7833 319° Northwest 430 495 38,000  Level Vancouver Center
Fri 12:09:53 AM 51.3500 -128.9000 324° Northwest 430 495 38,000  Level Vancouver Center
Fri 12:10:53 AM 51.4500 -129.0167 324° Northwest 430 495 38,000  Level Vancouver Center
Fri 12:11:53 AM 51.5333 -129.1667 312° West 430 495 38,000  Level Vancouver Center
Fri 12:12:53 AM 51.6167 -129.2833 319° Northwest 420 483 38,000  Level Vancouver Center
Fri 12:13:53 AM 51.7167 -129.4000 324° Northwest 420 483 38,000  Level Vancouver Center
Fri 12:14:53 AM 51.8000 -129.5333 315° West 420 483 38,000  Level Vancouver Center
Fri 12:15:53 AM 51.8833 -129.6500 319° Northwest 420 483 38,000  Level Vancouver Center
Fri 12:16:53 AM 51.9833 -129.8000 317° Northwest 420 483 38,000  Level Vancouver Center
Fri 12:17:53 AM 52.0667 -129.9167 319° Northwest 420 483 38,000  Level Vancouver Center
Fri 12:18:53 AM 52.1500 -130.0333 319° Northwest 420 483 38,000  Level Vancouver Center
Fri 12:19:53 AM 52.2500 -130.1500 324° Northwest 420 483 38,000  Level Vancouver Center
Fri 12:20:53 AM 52.3333 -130.2833 316° Northwest 430 495 38,000  Level Vancouver Center
Fri 12:21:53 AM 52.4167 -130.4000 320° Northwest 430 495 38,000  Level Vancouver Center
Fri 12:22:53 AM 52.5000 -130.5500 312° West 430 495 38,000  Level Vancouver Center
Fri 12:23:53 AM 52.6000 -130.6833 321° Northwest 430 495 38,000  Level Vancouver Center
Fri 12:24:53 AM 52.6833 -130.8000 320° Northwest 420 483 38,000  Level Vancouver Center
Fri 12:25:53 AM 52.7667 -130.9167 320° Northwest 420 483 38,000  Level Vancouver Center
Fri 12:26:53 AM 52.8667 -131.0500 321° Northwest 420 483 38,000  Level Vancouver Center
Fri 12:27:53 AM 52.9333 -131.2000 306° West 420 483 38,000  Level Vancouver Center
Fri 12:28:53 AM 53.0333 -131.3333 321° Northwest 420 483 38,000  Level Vancouver Center
Fri 12:29:53 AM 53.1167 -131.4500 320° Northwest 420 483 38,000  Level Vancouver Center
Fri 12:30:53 AM 53.2000 -131.5833 316° Northwest 420 483 38,000  Level Vancouver Center
Fri 12:31:53 AM 53.2833 -131.7167 316° Northwest 420 483 38,000  Level Vancouver Center
Fri 12:35:53 AM 53.6333 -132.2500 318° Northwest 420 483 38,000  Level Vancouver Center
Fri 12:36:53 AM 53.7167 -132.3833 317° Northwest 430 495 38,000  Level Vancouver Center
Fri 12:37:53 AM 53.8000 -132.5500 310° West 430 495 38,000  Level Vancouver Center
Fri 12:38:53 AM 53.9000 -132.6833 322° Northwest 430 495 38,000  Level Vancouver Center
Fri 12:39:53 AM 53.9833 -132.8167 317° Northwest 440 506 38,000  Level Vancouver Center
Fri 12:40:53 AM 54.0667 -132.9667 313° West 440 506 38,000  Level Vancouver Center
Fri 12:50:53 AM 54.9333 -134.4167 315° West 440 506 38,000  Level Vancouver Center
Fri 12:51:00 AM 54.8825 -134.2782 316° Northwest  Level FlightAware Approximate
Fri 12:51:53 AM 55.0333 -134.5667 319° Northwest 440 506 38,000  Level Vancouver Center
Fri 12:52:00 AM 54.9643 -134.4189 315° West  Level FlightAware Approximate
Fri 12:52:53 AM 55.1000 -134.7333 305° West 440 506 38,000  Level Vancouver Center
Fri 12:53:00 AM 55.0461 -134.5602 315° West  Level FlightAware Approximate
Fri 12:53:53 AM 55.2167 -134.8667 327° Northwest 440 506 38,000  Level Vancouver Center
Fri 12:54:00 AM 55.1276 -134.7021 315° West  Level FlightAware Approximate
Fri 12:54:53 AM 55.2833 -135.0167 308° West 440 506 38,000  Level Vancouver Center
Fri 12:55:00 AM 55.2090 -134.8445 315° West  Level FlightAware Approximate
Fri 12:55:23 AM 55.3167 -135.0333 344° North 440 506 38,000  Level Anchorage Center
Fri 12:56:00 AM 55.2902 -134.9875 315° West  Level FlightAware Approximate
Fri 12:56:23 AM 55.4167 -135.1833 320° Northwest 440 506 38,000  Level Anchorage Center
Fri 12:56:53 AM 55.4500 -135.3333 291° West 440 506 38,000  Level Vancouver Center
Fri 12:57:53 AM 55.5500 -135.4667 323° Northwest 440 506 38,000  Level Vancouver Center
Fri 12:58:53 AM 55.6167 -135.6333 305° West 440 506 38,000  Level Vancouver Center
Fri 12:59:53 AM 55.7167 -135.7833 320° Northwest 440 506 38,000  Level Vancouver Center
Fri 01:00:53 AM 55.7833 -135.9333 308° West 430 495 38,000  Level Vancouver Center
Fri 01:02:25 AM 55.9167 -136.1000 325° Northwest 430 495 38,000  Level Anchorage Center
Fri 01:03:25 AM 56.0000 -136.2667 312° West 430 495 38,000  Level Anchorage Center
Fri 01:04:26 AM 56.0833 -136.4167 315° West 430 495 38,000  Level Anchorage Center
Fri 01:05:26 AM 56.1667 -136.5833 312° West 440 506 38,000  Level Anchorage Center
Fri 01:06:27 AM 56.2500 -136.7333 315° West 440 506 38,000  Level Anchorage Center
Fri 01:08:27 AM 56.4167 -137.0667 312° West 440 506 38,000  Level Anchorage Center
Fri 01:09:28 AM 56.5000 -137.2167 315° West 440 506 38,000  Level Anchorage Center
Fri 01:10:28 AM 56.5833 -137.3833 312° West 440 506 38,000  Level Anchorage Center
Fri 01:11:28 AM 56.6667 -137.5500 312° West 440 506 38,000  Level Anchorage Center
Fri 01:12:29 AM 56.7500 -137.7167 312° West 440 506 38,000  Level Anchorage Center
Fri 01:13:29 AM 56.8333 -137.8833 312° West 440 506 38,000  Level Anchorage Center
Fri 01:14:29 AM 56.9167 -138.0500 313° West 430 495 38,000  Level Anchorage Center
Fri 01:15:29 AM 57.0000 -138.2167 313° West 420 483 38,000  Level Anchorage Center
Fri 01:16:30 AM 57.0833 -138.3833 313° West 440 506 38,000  Level Anchorage Center
Fri 01:17:30 AM 57.1667 -138.5500 313° West 440 506 38,000  Level Anchorage Center
Fri 01:18:30 AM 57.2500 -138.7167 313° West 450 518 38,000  Level Anchorage Center
Fri 01:19:31 AM 57.3333 -138.8833 313° West 440 506 38,000  Level Anchorage Center
Fri 01:20:31 AM 57.4167 -139.0500 313° West 440 506 38,000  Level Anchorage Center
Fri 01:21:32 AM 57.5000 -139.2167 313° West 450 518 38,000  Level Anchorage Center
Fri 01:22:32 AM 57.5667 -139.3833 307° West 440 506 38,000  Level Anchorage Center
Fri 01:23:32 AM 57.6500 -139.5500 313° West 440 506 38,000  Level Anchorage Center
Fri 01:24:33 AM 57.7333 -139.7333 310° West 440 506 38,000  Level Anchorage Center
Fri 01:25:33 AM 57.8000 -139.9000 307° West 430 495 38,000  Level Anchorage Center
Fri 01:26:33 AM 57.8833 -140.0833 311° West 440 506 38,000  Level Anchorage Center
Fri 01:27:34 AM 57.9667 -140.2500 313° West 440 506 38,000  Level Anchorage Center
Fri 01:28:34 AM 58.0500 -140.4167 313° West 440 506 38,000  Level Anchorage Center
Fri 01:29:34 AM 58.1167 -140.6000 305° West 440 506 38,000  Level Anchorage Center
Fri 01:30:35 AM 58.2000 -140.7833 311° West 430 495 38,000  Level Anchorage Center
Fri 01:31:35 AM 58.2833 -140.9667 311° West 440 506 38,000  Level Anchorage Center
Fri 01:32:36 AM 58.3500 -141.1500 305° West 430 495 38,000  Level Anchorage Center
Fri 01:33:36 AM 58.4167 -141.3500 303° West 440 506 38,000  Level Anchorage Center
Fri 01:34:36 AM 58.5000 -141.5333 311° West 440 506 38,000  Level Anchorage Center
Fri 01:35:37 AM 58.5667 -141.7333 303° West 440 506 38,000  Level Anchorage Center
Fri 01:36:37 AM 58.6333 -141.9333 303° West 440 506 38,000  Level Anchorage Center
Fri 01:37:37 AM 58.7000 -142.1333 303° West 440 506 38,000  Level Anchorage Center
Fri 01:38:38 AM 58.7833 -142.3167 311° West 440 506 38,000  Level Anchorage Center
Fri 01:39:38 AM 58.8500 -142.5167 303° West 430 495 38,000  Level Anchorage Center
Fri 01:40:38 AM 58.9167 -142.7167 303° West 440 506 38,000  Level Anchorage Center
Fri 01:41:39 AM 58.9833 -142.9167 303° West 430 495 38,000  Level Anchorage Center
Fri 01:42:39 AM 59.0500 -143.1000 305° West 430 495 38,000  Level Anchorage Center
Fri 01:43:39 AM 59.1167 -143.3167 301° West 430 495 38,000  Level Anchorage Center
Fri 01:44:40 AM 59.1833 -143.5167 303° West 440 506 38,000  Level Anchorage Center
Fri 01:45:40 AM 59.2500 -143.7167 303° West 440 506 38,000  Level Anchorage Center
Fri 01:46:41 AM 59.3167 -143.9167 303° West 440 506 38,000  Level Anchorage Center
Fri 01:47:41 AM 59.3833 -144.1167 303° West 430 495 38,000  Level Anchorage Center
Fri 01:48:41 AM 59.4500 -144.3167 303° West 440 506 38,000  Level Anchorage Center
Fri 01:49:42 AM 59.5167 -144.5167 303° West 440 506 38,000  Level Anchorage Center
Fri 01:50:42 AM 59.5833 -144.7333 301° West 440 506 38,000  Level Anchorage Center
Fri 01:51:42 AM 59.6500 -144.9333 303° West 440 506 38,000  Level Anchorage Center
Fri 01:52:43 AM 59.7167 -145.1333 304° West 440 506 38,000  Level Anchorage Center
Fri 01:53:43 AM 59.7833 -145.3333 304° West 430 495 38,000  Level Anchorage Center
Fri 01:54:43 AM 59.8333 -145.5500 295° West 440 506 38,000  Level Anchorage Center
Fri 01:55:44 AM 59.9167 -145.8000 304° West 440 506 38,000  Level Anchorage Center
Fri 01:56:44 AM 59.9833 -146.0000 304° West 440 506 38,000  Level Anchorage Center
Fri 01:57:44 AM 60.0333 -146.2167 295° West 440 506 38,000  Level Anchorage Center
Fri 01:58:44 AM 60.1000 -146.4333 302° West 440 506 38,000  Level Anchorage Center
Fri 01:59:45 AM 60.1667 -146.6333 304° West 440 506 38,000  Level Anchorage Center
Fri 02:00:45 AM 60.2333 -146.8500 302° West 440 506 38,000  Level Anchorage Center
Fri 02:01:45 AM 60.2833 -147.0667 295° West 440 506 38,000  Level Anchorage Center
Fri 02:02:46 AM 60.3500 -147.2833 302° West 440 506 38,000 -1,041 Level Anchorage Center
Fri 02:03:46 AM 60.4167 -147.5000 302° West 430 495 35,900 -2,552 Descending Anchorage Center
Fri 02:08:48 AM 60.7000 -148.5167 287° West 390 449 22,600 -2,586 Descending Anchorage Center
Fri 02:09:48 AM 60.7500 -148.7167 297° West 370 426 20,300 -2,300 Descending Anchorage Center
Fri 02:11:00 AM 60.8167 -148.9633 299° West  Level FlightAware Approximate
Fri 02:12:00 AM 60.6210 -147.5253 289° West  Level FlightAware Approximate
Fri 02:13:00 AM 60.6560 -147.7480 287° West  Level FlightAware Approximate
Fri 02:18:00 AM 61.1741 -149.9982 65° Northeast  Level Estimated
Fri 02:19:00 AM 61.1741 -149.9982 65° Northeast  Level Estimated
Fri 02:20:00 AM 61.1741 -149.9982 65° Northeast  Level Estimated
Fri 02:21:00 AM 61.1741 -149.9982 65° Northeast  Level Estimated
Fri 02:22:00 AM 61.1741 -149.9982 65° Northeast  Level Estimated
Fri 02:23:00 AM 61.1741 -149.9982 65° Northeast  Level Estimated
Fri 02:24:00 AM 61.1741 -149.9982 65° Northeast  Level Estimated
Fri 02:25:00 AM 61.1741 -149.9982 65° Northeast  Level Estimated
Fri 02:26:00 AM 61.1741 -149.9982 65° Northeast  Level Estimated
Fri 02:27:00 AM 61.1741 -149.9982 65° Northeast  Level Estimated
Fri 02:28:00 AM 61.1741 -149.9982 65° Northeast  Level Estimated
Fri 02:29:00 AM 61.1741 -149.9982 65° Northeast  Level Estimated
Fri 02:30:00 AM 61.1741 -149.9982 65° Northeast  Level Estimated
Fri 02:31:00 AM 61.1741 -149.9982 65° Northeast  Level Estimated
Fri 02:32:00 AM 61.1741 -149.9982 65° Northeast  Level Estimated
Fri 02:33:00 AM 61.1741 -149.9982 65° Northeast  Level Estimated

Login

Don't have an account? Register now (free) for customized features, flight alerts, and more!